createdAt,value
2019-05-07T00:00:35.823Z,79.42
2019-05-07T00:01:35.806Z,79.11
2019-05-07T00:02:35.798Z,79.15
2019-05-07T00:03:35.808Z,79.52
2019-05-07T00:04:35.786Z,79.15
2019-05-07T00:05:35.763Z,79.32
2019-05-07T00:06:35.753Z,79.36
2019-05-07T00:07:35.753Z,79.42
2019-05-07T00:08:35.729Z,79.32
2019-05-07T00:09:35.730Z,79.52
2019-05-07T00:10:35.708Z,79.52
2019-05-07T00:11:35.692Z,79.32
2019-05-07T00:12:35.685Z,79.32
2019-05-07T00:13:35.678Z,79.52
2019-05-07T00:14:35.670Z,79.83
2019-05-07T00:15:35.649Z,78.91
2019-05-07T00:16:35.654Z,78.80
2019-05-07T00:17:35.634Z,79.01
2019-05-07T00:18:35.620Z,78.91
2019-05-07T00:19:35.616Z,78.14
2019-05-07T00:20:35.594Z,78.28
2019-05-07T00:21:35.585Z,78.18
2019-05-07T00:22:35.567Z,77.98
2019-05-07T00:23:35.558Z,78.14
2019-05-07T00:24:35.559Z,77.84
2019-05-07T00:25:35.541Z,78.45
2019-05-07T00:26:35.533Z,78.05
2019-05-07T00:27:35.536Z,77.84
2019-05-07T00:28:35.501Z,77.63
2019-05-07T00:29:35.523Z,77.63
2019-05-07T00:30:35.492Z,77.63
2019-05-07T00:31:35.472Z,78.25
2019-05-07T00:32:35.462Z,78.66
2019-05-07T00:33:35.450Z,78.77
2019-05-07T00:34:35.439Z,79.49
2019-05-07T00:35:35.444Z,80.00
2019-05-07T00:36:35.412Z,81.04
2019-05-07T00:37:35.402Z,81.14
2019-05-07T00:38:35.389Z,82.28
2019-05-07T00:39:35.405Z,83.51
2019-05-07T00:40:35.373Z,83.76
2019-05-07T00:41:35.378Z,84.28
2019-05-07T00:42:35.355Z,84.28
2019-05-07T00:43:35.346Z,84.69
2019-05-07T00:44:35.332Z,84.63
2019-05-07T00:45:35.315Z,85.04
2019-05-07T00:46:35.320Z,85.24
2019-05-07T00:47:35.290Z,85.31
2019-05-07T00:48:35.285Z,86.03
2019-05-07T00:49:35.265Z,85.97
2019-05-07T00:50:35.262Z,86.76
2019-05-07T00:51:35.253Z,86.44
2019-05-07T00:52:35.251Z,86.49
2019-05-07T00:53:35.227Z,86.76
2019-05-07T00:54:35.218Z,86.55
2019-05-07T00:55:35.204Z,87.00
2019-05-07T00:56:35.205Z,87.68
2019-05-07T00:57:35.182Z,87.48
2019-05-07T00:58:35.176Z,86.96
2019-05-07T00:59:35.167Z,87.17
2019-05-07T01:00:35.144Z,87.68
2019-05-07T01:01:35.167Z,87.52
2019-05-07T01:02:35.128Z,87.89
2019-05-07T01:03:35.118Z,88.71
2019-05-07T01:04:35.105Z,88.51
2019-05-07T01:05:35.104Z,88.31
2019-05-07T01:06:35.078Z,88.10
2019-05-07T01:07:35.093Z,88.10
2019-05-07T01:08:35.060Z,88.51
2019-05-07T01:09:35.059Z,89.13
2019-05-07T01:10:35.042Z,88.92
2019-05-07T01:11:35.024Z,88.61
2019-05-07T01:12:35.016Z,89.13
2019-05-07T01:13:35.008Z,89.03
2019-05-07T01:14:35.000Z,89.17
2019-05-07T01:15:34.992Z,89.34
2019-05-07T01:16:34.980Z,89.28
2019-05-07T01:17:34.980Z,89.34
2019-05-07T01:18:34.951Z,89.59
2019-05-07T01:19:34.936Z,89.89
2019-05-07T01:20:34.926Z,89.79
2019-05-07T01:21:34.919Z,90.20
2019-05-07T01:22:34.902Z,90.52
2019-05-07T01:23:34.909Z,90.52
2019-05-07T01:24:34.894Z,90.52
2019-05-07T01:25:34.866Z,90.62
2019-05-07T01:26:34.861Z,90.31
2019-05-07T01:27:34.859Z,90.62
2019-05-07T01:28:34.881Z,90.72
2019-05-07T01:29:34.822Z,90.00
2019-05-07T01:30:34.827Z,90.72
2019-05-07T01:31:34.804Z,90.83
2019-05-07T01:32:34.794Z,90.62
2019-05-07T01:33:34.782Z,90.35
2019-05-07T01:34:34.778Z,90.62
2019-05-07T01:35:34.761Z,90.41
2019-05-07T01:36:34.752Z,90.45
2019-05-07T01:37:34.754Z,90.31
2019-05-07T01:38:34.731Z,90.52
2019-05-07T01:39:34.722Z,90.25
2019-05-07T01:40:34.712Z,90.56
2019-05-07T01:41:34.698Z,90.97
2019-05-07T01:42:36.586Z,90.77
2019-05-07T01:43:34.684Z,91.28
2019-05-07T01:44:34.668Z,91.17
2019-05-07T01:45:45.316Z,90.87
2019-05-07T01:46:35.643Z,90.97
2019-05-07T01:47:34.641Z,90.77
2019-05-07T01:48:34.619Z,90.87
2019-05-07T01:49:34.610Z,90.45
2019-05-07T01:50:34.606Z,90.45
2019-05-07T01:51:34.657Z,90.35
2019-05-07T01:52:34.608Z,90.45
2019-05-07T01:53:34.565Z,90.66
2019-05-07T01:54:34.570Z,90.14
2019-05-07T01:55:34.554Z,90.56
2019-05-07T01:56:34.538Z,90.35
2019-05-07T01:57:34.528Z,90.56
2019-05-07T01:58:34.522Z,90.35
2019-05-07T01:59:34.507Z,90.56
2019-05-07T02:00:34.496Z,90.50
2019-05-07T02:01:35.881Z,90.87
2019-05-07T02:02:34.475Z,90.87
2019-05-07T02:03:34.503Z,90.77
2019-05-07T02:04:34.455Z,90.77
2019-05-07T02:05:34.436Z,90.77
2019-05-07T02:06:34.427Z,90.87
2019-05-07T02:07:34.418Z,91.01
2019-05-07T02:08:34.425Z,90.97
2019-05-07T02:09:34.446Z,90.97
2019-05-07T02:10:34.383Z,91.17
2019-05-07T02:11:34.378Z,91.07
2019-05-07T02:12:34.365Z,91.53
2019-05-07T02:13:34.356Z,91.59
2019-05-07T02:14:34.350Z,91.80
2019-05-07T02:15:34.345Z,91.38
2019-05-07T02:16:34.322Z,92.00
2019-05-07T02:17:34.308Z,91.80
2019-05-07T02:18:34.358Z,91.90
2019-05-07T02:19:34.292Z,91.80
2019-05-07T02:20:34.283Z,91.59
2019-05-07T02:21:34.272Z,91.69
2019-05-07T02:22:34.259Z,91.94
2019-05-07T02:23:34.246Z,92.46
2019-05-07T02:24:34.240Z,92.46
2019-05-07T02:25:34.228Z,91.84
2019-05-07T02:26:34.222Z,92.57
2019-05-07T02:27:34.210Z,91.74
2019-05-07T02:28:34.189Z,91.94
2019-05-07T02:29:34.185Z,92.57
2019-05-07T02:30:35.320Z,91.69
2019-05-07T02:31:34.160Z,91.94
2019-05-07T02:32:34.144Z,91.84
2019-05-07T02:33:35.096Z,92.46
2019-05-07T02:34:34.630Z,91.94
2019-05-07T02:35:34.115Z,91.94
2019-05-07T02:36:34.292Z,92.46
2019-05-07T02:37:47.057Z,91.63
2019-05-07T02:38:35.085Z,92.46
2019-05-07T02:39:34.097Z,92.46
2019-05-07T02:40:34.287Z,91.80
2019-05-07T02:41:34.076Z,91.94
2019-05-07T02:42:34.043Z,91.84
2019-05-07T02:43:34.069Z,91.74
2019-05-07T02:44:34.016Z,91.84
2019-05-07T02:45:34.035Z,91.94
2019-05-07T02:46:36.311Z,91.84
2019-05-07T02:47:34.030Z,91.94
2019-05-07T02:48:33.977Z,91.63
2019-05-07T02:49:33.969Z,92.36
2019-05-07T02:50:33.970Z,92.46
2019-05-07T02:51:33.952Z,92.36
2019-05-07T02:52:33.934Z,92.57
2019-05-07T02:53:33.996Z,92.57
2019-05-07T02:54:33.926Z,92.25
2019-05-07T02:55:33.922Z,92.15
2019-05-07T02:56:33.905Z,92.87
2019-05-07T02:57:34.383Z,92.57
2019-05-07T02:58:33.865Z,92.67
2019-05-07T02:59:33.982Z,92.67
2019-05-07T03:00:33.844Z,92.77
2019-05-07T03:01:33.984Z,92.87
2019-05-07T03:02:33.821Z,93.29
2019-05-07T03:03:33.881Z,93.49
2019-05-07T03:04:33.817Z,93.29
2019-05-07T03:05:35.012Z,93.08
2019-05-07T03:06:34.153Z,93.18
2019-05-07T03:07:33.902Z,93.39
2019-05-07T03:08:33.760Z,93.39
2019-05-07T03:09:33.756Z,93.29
2019-05-07T03:10:34.352Z,93.39
2019-05-07T03:11:34.146Z,93.80
2019-05-07T03:12:33.777Z,93.91
2019-05-07T03:13:34.020Z,94.32
2019-05-07T03:14:33.701Z,93.80
2019-05-07T03:15:33.766Z,94.01
2019-05-07T03:16:43.106Z,93.91
2019-05-07T03:17:34.667Z,93.70
2019-05-07T03:18:33.893Z,93.80
2019-05-07T03:19:33.643Z,93.80
2019-05-07T03:20:33.632Z,93.91
2019-05-07T03:21:33.615Z,93.85
2019-05-07T03:22:34.011Z,93.91
2019-05-07T03:23:34.225Z,93.80
2019-05-07T03:24:34.441Z,94.12
2019-05-07T03:25:34.010Z,93.80
2019-05-07T03:26:34.222Z,94.32
2019-05-07T03:27:34.302Z,93.91
2019-05-07T03:28:33.732Z,93.80
2019-05-07T03:29:33.683Z,94.57
2019-05-07T03:30:35.931Z,94.22
2019-05-07T03:31:36.442Z,94.32
2019-05-07T03:32:37.995Z,94.22
2019-05-07T03:33:36.744Z,94.22
2019-05-07T03:34:36.758Z,94.84
2019-05-07T03:35:37.328Z,94.43
2019-05-07T03:36:35.412Z,94.32
2019-05-07T03:37:36.346Z,94.73
2019-05-07T03:38:33.824Z,94.53
2019-05-07T03:39:33.917Z,95.25
2019-05-07T03:40:33.409Z,95.04
2019-05-07T03:41:33.409Z,95.04
2019-05-07T03:42:33.914Z,95.15
2019-05-07T03:43:33.423Z,95.04
2019-05-07T03:44:33.982Z,94.73
2019-05-07T03:45:33.652Z,95.15
2019-05-07T03:46:33.698Z,95.25
2019-05-07T03:47:33.379Z,95.36
2019-05-07T03:48:33.555Z,95.25
2019-05-07T03:49:34.201Z,95.19
2019-05-07T03:50:33.762Z,95.36
2019-05-07T03:51:33.304Z,95.36
2019-05-07T03:52:33.721Z,95.56
2019-05-07T03:53:34.101Z,95.56
2019-05-07T03:54:34.062Z,95.56
2019-05-07T03:55:33.429Z,95.56
2019-05-07T03:56:33.237Z,95.25
2019-05-07T03:57:33.656Z,96.08
2019-05-07T03:58:33.936Z,95.98
2019-05-07T03:59:34.243Z,95.67
2019-05-07T04:00:33.551Z,95.87
2019-05-07T04:01:33.563Z,95.67
2019-05-07T04:02:33.471Z,95.56
2019-05-07T04:03:34.371Z,95.77
2019-05-07T04:04:33.449Z,95.77
2019-05-07T04:05:34.161Z,95.87
2019-05-07T04:06:33.365Z,95.67
2019-05-07T04:07:33.828Z,95.67
2019-05-07T04:08:33.651Z,95.67
2019-05-07T04:09:33.585Z,95.56
2019-05-07T04:10:33.920Z,95.62
2019-05-07T04:11:33.696Z,95.62
2019-05-07T04:12:34.296Z,95.52
2019-05-07T04:13:33.777Z,95.62
2019-05-07T04:14:34.398Z,95.83
2019-05-07T04:15:33.286Z,95.52
2019-05-07T04:16:33.334Z,95.62
2019-05-07T04:17:33.936Z,95.52
2019-05-07T04:18:33.304Z,95.73
2019-05-07T04:19:33.118Z,95.67
2019-05-07T04:20:33.552Z,95.62
2019-05-07T04:21:34.378Z,95.73
2019-05-07T04:22:34.533Z,95.56
2019-05-07T04:23:34.150Z,95.83
2019-05-07T04:24:33.371Z,95.62
2019-05-07T04:25:34.666Z,95.62
2019-05-07T04:26:33.935Z,95.73
2019-05-07T04:27:33.404Z,95.52
2019-05-07T04:28:33.621Z,95.62
2019-05-07T04:29:35.112Z,95.62
2019-05-07T04:30:33.209Z,95.73
2019-05-07T04:31:34.321Z,95.52
2019-05-07T04:32:33.413Z,95.94
2019-05-07T04:33:33.477Z,95.89
2019-05-07T04:34:33.673Z,95.52
2019-05-07T04:35:33.578Z,95.83
2019-05-07T04:36:34.150Z,95.94
2019-05-07T04:37:33.365Z,95.48
2019-05-07T04:38:33.342Z,95.73
2019-05-07T04:39:33.518Z,95.68
2019-05-07T04:40:33.885Z,95.57
2019-05-07T04:41:33.151Z,95.57
2019-05-07T04:42:33.494Z,95.68
2019-05-07T04:43:33.581Z,95.48
2019-05-07T04:44:33.246Z,95.68
2019-05-07T04:45:33.685Z,95.68
2019-05-07T04:46:33.526Z,95.68
2019-05-07T04:47:42.468Z,95.89
2019-05-07T04:48:34.305Z,95.48
2019-05-07T04:49:33.152Z,95.57
2019-05-07T04:50:39.387Z,95.68
2019-05-07T04:51:33.789Z,95.57
2019-05-07T04:52:33.675Z,95.43
2019-05-07T04:53:32.963Z,95.53
2019-05-07T04:54:33.032Z,95.95
2019-05-07T04:55:33.416Z,95.74
2019-05-07T04:56:33.713Z,95.64
2019-05-07T04:57:33.099Z,95.64
2019-05-07T04:58:33.850Z,95.74
2019-05-07T04:59:33.091Z,95.64
2019-05-07T05:00:33.580Z,95.53
2019-05-07T05:01:32.987Z,95.43
2019-05-07T05:02:32.631Z,95.90
2019-05-07T05:03:34.583Z,95.59
2019-05-07T05:04:34.846Z,94.87
2019-05-07T05:05:33.119Z,94.46
2019-05-07T05:06:33.037Z,94.04
2019-05-07T05:07:33.475Z,93.73
2019-05-07T05:08:32.777Z,94.35
2019-05-07T05:09:33.142Z,93.69
2019-05-07T05:10:33.631Z,93.49
2019-05-07T05:11:33.577Z,93.44
2019-05-07T05:12:32.790Z,93.59
2019-05-07T05:13:33.341Z,92.93
2019-05-07T05:14:33.800Z,92.93
2019-05-07T05:15:32.368Z,93.03
2019-05-07T05:16:32.815Z,92.41
2019-05-07T05:17:32.346Z,91.69
2019-05-07T05:18:32.975Z,91.32
2019-05-07T05:19:32.507Z,91.69
2019-05-07T05:20:33.627Z,91.52
2019-05-07T05:21:32.375Z,90.70
2019-05-07T05:22:32.292Z,90.86
2019-05-07T05:23:32.372Z,90.80
2019-05-07T05:24:32.947Z,90.19
2019-05-07T05:25:32.394Z,90.35
2019-05-07T05:26:32.590Z,90.19
2019-05-07T05:27:32.704Z,90.14
2019-05-07T05:28:32.454Z,90.35
2019-05-07T05:29:32.389Z,90.25
2019-05-07T05:30:32.759Z,90.45
2019-05-07T05:31:33.015Z,90.45
2019-05-07T05:32:32.521Z,90.35
2019-05-07T05:33:32.461Z,90.14
2019-05-07T05:34:32.892Z,90.14
2019-05-07T05:35:32.249Z,89.83
2019-05-07T05:36:33.011Z,89.62
2019-05-07T05:37:32.238Z,89.73
2019-05-07T05:38:32.907Z,89.62
2019-05-07T05:39:32.198Z,89.15
2019-05-07T05:40:32.136Z,88.74
2019-05-07T05:41:34.153Z,88.32
2019-05-07T05:42:33.021Z,88.22
2019-05-07T05:43:32.135Z,88.16
2019-05-07T05:44:32.226Z,88.37
2019-05-07T05:45:33.446Z,88.37
2019-05-07T05:46:32.063Z,88.98
2019-05-07T05:47:32.943Z,88.98
2019-05-07T05:48:33.296Z,88.68
2019-05-07T05:49:32.279Z,88.89
2019-05-07T05:50:33.092Z,88.31
2019-05-07T05:51:32.328Z,88.51
2019-05-07T05:52:32.855Z,88.89
2019-05-07T05:53:32.685Z,89.09
2019-05-07T05:54:32.026Z,88.89
2019-05-07T05:55:32.223Z,88.89
2019-05-07T05:56:32.502Z,89.13
2019-05-07T05:57:32.361Z,88.98
2019-05-07T05:58:32.528Z,88.68
2019-05-07T05:59:46.912Z,88.78
2019-05-07T06:00:32.967Z,89.19
2019-05-07T06:01:32.117Z,89.29
2019-05-07T06:02:32.476Z,89.25
2019-05-07T06:03:32.353Z,88.84
2019-05-07T06:04:32.905Z,88.90
2019-05-07T06:05:34.305Z,88.39
2019-05-07T06:06:32.671Z,86.63
2019-05-07T06:07:32.008Z,87.50
2019-05-07T06:08:32.571Z,87.50
2019-05-07T06:09:32.822Z,87.60
2019-05-07T06:10:32.994Z,87.05
2019-05-07T06:11:32.242Z,87.46
2019-05-07T06:12:32.795Z,86.94
2019-05-07T06:13:32.333Z,86.57
2019-05-07T06:14:33.065Z,86.94
2019-05-07T06:15:32.736Z,86.43
2019-05-07T06:16:32.888Z,87.63
2019-05-07T06:17:32.177Z,86.49
2019-05-07T06:18:32.741Z,87.07
2019-05-07T06:19:32.803Z,86.97
2019-05-07T06:20:32.144Z,86.31
2019-05-07T06:21:32.313Z,84.25
2019-05-07T06:22:33.085Z,83.01
2019-05-07T06:23:33.055Z,83.94
2019-05-07T06:24:31.841Z,83.39
2019-05-07T06:25:33.414Z,82.09
2019-05-07T06:26:31.987Z,81.37
2019-05-07T06:27:32.512Z,82.77
2019-05-07T06:28:33.044Z,81.63
2019-05-07T06:29:32.977Z,81.26
2019-05-07T06:30:33.700Z,80.95
2019-05-07T06:31:32.659Z,81.05
2019-05-07T06:32:32.088Z,81.84
2019-05-07T06:33:32.438Z,81.57
2019-05-07T06:34:31.498Z,80.71
2019-05-07T06:35:32.489Z,79.27
2019-05-07T06:36:32.873Z,78.65
2019-05-07T06:37:32.171Z,78.14
2019-05-07T06:38:32.063Z,79.64
2019-05-07T06:39:32.768Z,80.05
2019-05-07T06:40:32.143Z,79.61
2019-05-07T06:41:32.255Z,79.61
2019-05-07T06:42:33.221Z,78.47
2019-05-07T06:43:32.574Z,77.55
2019-05-07T06:44:31.997Z,78.06
2019-05-07T06:45:35.111Z,76.52
2019-05-07T06:46:32.264Z,76.45
2019-05-07T06:47:31.984Z,77.69
2019-05-07T06:48:38.867Z,77.89
2019-05-07T06:49:32.548Z,78.00
2019-05-07T06:50:32.681Z,78.10
2019-05-07T06:51:32.830Z,76.79
2019-05-07T06:52:31.954Z,78.10
2019-05-07T06:53:33.334Z,76.90
2019-05-07T06:54:32.076Z,77.51
2019-05-07T06:55:32.381Z,77.11
2019-05-07T06:56:32.577Z,76.90
2019-05-07T06:57:32.954Z,75.70
2019-05-07T06:58:32.681Z,77.04
2019-05-07T06:59:34.274Z,78.00
2019-05-07T07:00:31.923Z,77.55
2019-05-07T07:01:32.250Z,77.86
2019-05-07T07:02:32.870Z,77.83
2019-05-07T07:03:32.783Z,75.05
2019-05-07T07:04:33.146Z,75.05
2019-05-07T07:05:33.013Z,73.47
2019-05-07T07:06:32.210Z,74.29
2019-05-07T07:07:36.499Z,74.87
2019-05-07T07:08:32.610Z,75.76
2019-05-07T07:09:32.912Z,75.67
2019-05-07T07:10:32.271Z,72.96
2019-05-07T07:11:31.953Z,71.00
2019-05-07T07:12:33.085Z,69.43
2019-05-07T07:13:32.158Z,69.94
2019-05-07T07:14:32.980Z,69.64
2019-05-07T07:15:32.047Z,67.27
2019-05-07T07:16:32.591Z,70.15
2019-05-07T07:17:32.634Z,69.23
2019-05-07T07:18:32.262Z,70.04
2019-05-07T07:19:32.529Z,70.22
2019-05-07T07:20:32.585Z,70.01
2019-05-07T07:21:32.645Z,70.42
2019-05-07T07:22:31.959Z,70.36
2019-05-07T07:23:32.444Z,68.61
2019-05-07T07:24:32.872Z,68.81
2019-05-07T07:25:32.601Z,67.48
2019-05-07T07:26:32.796Z,67.89
2019-05-07T07:27:32.196Z,67.68
2019-05-07T07:28:32.709Z,66.48
2019-05-07T07:29:32.414Z,67.20
2019-05-07T07:30:32.582Z,65.56
2019-05-07T07:31:31.908Z,67.20
2019-05-07T07:32:31.741Z,67.00
2019-05-07T07:33:31.961Z,66.89
2019-05-07T07:34:33.069Z,64.73
2019-05-07T07:35:32.196Z,67.00
2019-05-07T07:36:32.022Z,65.86
2019-05-07T07:37:32.047Z,66.45
2019-05-07T07:38:32.876Z,67.89
2019-05-07T07:39:32.325Z,67.65
2019-05-07T07:40:32.724Z,67.00
2019-05-07T07:41:32.667Z,67.38
2019-05-07T07:42:31.966Z,64.51
2019-05-07T07:43:32.531Z,63.39
2019-05-07T07:44:32.835Z,64.10
2019-05-07T07:45:32.432Z,64.03
2019-05-07T07:46:32.857Z,62.49
2019-05-07T07:47:32.786Z,61.70
2019-05-07T07:48:32.068Z,62.83
2019-05-07T07:49:32.334Z,64.81
2019-05-07T07:50:32.380Z,65.53
2019-05-07T07:51:40.679Z,65.39
2019-05-07T07:52:32.429Z,63.51
2019-05-07T07:53:35.130Z,60.44
2019-05-07T07:54:32.123Z,61.44
2019-05-07T07:55:32.939Z,60.92
2019-05-07T07:56:45.358Z,59.66
2019-05-07T07:57:32.408Z,58.81
2019-05-07T07:58:32.188Z,57.28
2019-05-07T07:59:32.720Z,58.20
2019-05-07T08:00:32.852Z,59.33
2019-05-07T08:01:30.549Z,59.87
2019-05-07T08:02:32.185Z,61.20
2019-05-07T08:03:32.817Z,59.28
2019-05-07T08:04:31.987Z,59.89
2019-05-07T08:05:32.568Z,60.28
2019-05-07T08:06:32.566Z,58.74
2019-05-07T08:07:32.952Z,60.49
2019-05-07T08:08:31.988Z,60.76
2019-05-07T08:09:32.303Z,57.69
2019-05-07T08:10:32.490Z,57.35
2019-05-07T08:11:31.944Z,58.56
2019-05-07T08:12:32.366Z,59.58
2019-05-07T08:13:32.333Z,56.82
2019-05-07T08:14:32.410Z,57.40
2019-05-07T08:15:32.839Z,57.99
2019-05-07T08:16:32.619Z,57.17
2019-05-07T08:17:32.520Z,57.04
2019-05-07T08:18:32.615Z,54.39
2019-05-07T08:19:32.503Z,56.74
2019-05-07T08:20:32.421Z,57.12
2019-05-07T08:21:30.329Z,53.06
2019-05-07T08:22:30.320Z,56.05
2019-05-07T08:23:31.960Z,55.26
2019-05-07T08:24:32.067Z,54.74
2019-05-07T08:25:32.139Z,53.95
2019-05-07T08:26:32.222Z,55.84
2019-05-07T08:27:32.441Z,52.34
2019-05-07T08:28:31.981Z,50.68
2019-05-07T08:29:32.286Z,52.95
2019-05-07T08:30:30.225Z,55.64
2019-05-07T08:31:32.078Z,54.74
2019-05-07T08:32:32.524Z,54.87
2019-05-07T08:33:32.179Z,53.36
2019-05-07T08:34:31.946Z,54.49
2019-05-07T08:35:32.539Z,56.35
2019-05-07T08:36:30.170Z,55.87
2019-05-07T08:37:32.052Z,52.80
2019-05-07T08:38:32.643Z,56.15
2019-05-07T08:39:32.347Z,55.08
2019-05-07T08:40:32.433Z,54.61
2019-05-07T08:41:31.955Z,54.26
2019-05-07T08:42:32.065Z,54.92
2019-05-07T08:43:32.149Z,52.65
2019-05-07T08:44:32.412Z,54.36
2019-05-07T08:45:32.497Z,48.24
2019-05-07T08:46:30.050Z,46.73
2019-05-07T08:47:31.945Z,49.13
2019-05-07T08:48:31.965Z,51.50
2019-05-07T08:49:36.938Z,53.88
2019-05-07T08:50:32.677Z,52.70
2019-05-07T08:51:29.994Z,51.29
2019-05-07T08:52:29.990Z,52.31
2019-05-07T08:53:30.008Z,55.51
2019-05-07T08:54:31.960Z,55.92
2019-05-07T08:55:31.838Z,55.69
2019-05-07T08:56:31.884Z,50.34
2019-05-07T08:57:31.917Z,48.56
2019-05-07T08:58:31.763Z,50.15
2019-05-07T08:59:31.931Z,48.85
2019-05-07T09:00:29.898Z,47.56
2019-05-07T09:01:29.880Z,48.68
2019-05-07T09:02:29.876Z,46.50
2019-05-07T09:03:32.316Z,49.12
2019-05-07T09:04:29.852Z,46.60
2019-05-07T09:05:29.842Z,49.35
2019-05-07T09:06:29.827Z,50.67
2019-05-07T09:07:32.034Z,48.27
2019-05-07T09:08:31.682Z,46.77
2019-05-07T09:09:32.098Z,48.02
2019-05-07T09:10:29.783Z,48.24
2019-05-07T09:11:31.632Z,48.67
2019-05-07T09:12:31.710Z,51.04
2019-05-07T09:13:29.748Z,49.54
2019-05-07T09:14:31.563Z,48.23
2019-05-07T09:15:31.872Z,48.90
2019-05-07T09:16:31.836Z,50.84
2019-05-07T09:17:31.714Z,51.99
2019-05-07T09:18:32.114Z,50.52
2019-05-07T09:19:29.719Z,47.52
2019-05-07T09:20:31.974Z,46.68
2019-05-07T09:21:32.026Z,46.86
2019-05-07T09:22:29.653Z,45.70
2019-05-07T09:23:31.706Z,44.59
2019-05-07T09:24:29.635Z,45.62
2019-05-07T09:25:29.627Z,41.72
2019-05-07T09:26:29.603Z,43.69
2019-05-07T09:27:29.595Z,43.59
2019-05-07T09:28:29.585Z,42.86
2019-05-07T09:29:29.580Z,42.22
2019-05-07T09:30:29.619Z,44.02
2019-05-07T09:31:29.560Z,43.32
2019-05-07T09:32:29.547Z,42.90
2019-05-07T09:33:29.545Z,43.41
2019-05-07T09:34:29.559Z,42.27
2019-05-07T09:35:29.504Z,38.49
2019-05-07T09:36:29.499Z,39.18
2019-05-07T09:37:29.482Z,39.37
2019-05-07T09:38:29.475Z,37.61
2019-05-07T09:39:29.468Z,36.58
2019-05-07T09:40:29.462Z,37.00
2019-05-07T09:41:29.471Z,38.27
2019-05-07T09:42:29.431Z,40.54
2019-05-07T09:43:29.450Z,42.17
2019-05-07T09:44:29.415Z,42.10
2019-05-07T09:45:29.401Z,42.02
2019-05-07T09:46:29.385Z,41.43
2019-05-07T09:47:29.398Z,43.59
2019-05-07T09:48:29.373Z,45.04
2019-05-07T09:49:29.363Z,43.44
2019-05-07T09:50:29.347Z,45.40
2019-05-07T09:51:29.345Z,45.22
2019-05-07T09:52:29.323Z,45.14
2019-05-07T09:53:29.312Z,45.88
2019-05-07T09:54:29.305Z,47.44
2019-05-07T09:55:29.288Z,46.84
2019-05-07T09:56:29.320Z,48.17
2019-05-07T09:57:31.660Z,47.38
2019-05-07T09:58:36.642Z,47.00
2019-05-07T09:59:32.348Z,45.14
2019-05-07T10:00:29.235Z,45.59
2019-05-07T10:01:29.221Z,44.73
2019-05-07T10:02:29.222Z,43.59
2019-05-07T10:03:29.211Z,39.48
2019-05-07T10:04:29.194Z,40.78
2019-05-07T10:05:29.178Z,38.12
2019-05-07T10:06:29.170Z,39.62
2019-05-07T10:07:29.198Z,37.98
2019-05-07T10:08:29.156Z,37.26
2019-05-07T10:09:29.143Z,36.75
2019-05-07T10:10:29.133Z,36.93
2019-05-07T10:11:29.114Z,37.13
2019-05-07T10:12:29.111Z,37.95
2019-05-07T10:13:29.103Z,37.40
2019-05-07T10:14:29.085Z,36.58
2019-05-07T10:15:29.085Z,34.65
2019-05-07T10:16:29.065Z,36.47
2019-05-07T10:17:29.054Z,35.99
2019-05-07T10:18:29.042Z,36.76
2019-05-07T10:19:29.039Z,37.93
2019-05-07T10:20:29.058Z,39.58
2019-05-07T10:21:29.010Z,40.43
2019-05-07T10:22:29.002Z,43.00
2019-05-07T10:23:28.982Z,43.55
2019-05-07T10:24:28.972Z,41.53
2019-05-07T10:25:28.984Z,43.59
2019-05-07T10:26:28.962Z,41.96
2019-05-07T10:27:28.952Z,42.36
2019-05-07T10:28:28.929Z,42.02
2019-05-07T10:29:28.921Z,40.57
2019-05-07T10:30:28.913Z,39.21
2019-05-07T10:31:28.913Z,40.01
2019-05-07T10:32:28.913Z,37.23
2019-05-07T10:33:28.876Z,36.78
2019-05-07T10:34:28.901Z,34.55
2019-05-07T10:35:31.079Z,35.26
2019-05-07T10:36:28.944Z,38.07
2019-05-07T10:37:28.833Z,36.43
2019-05-07T10:38:28.830Z,34.08
2019-05-07T10:39:28.814Z,34.28
2019-05-07T10:40:28.807Z,34.38
2019-05-07T10:41:28.825Z,35.00
2019-05-07T10:42:28.818Z,34.31
2019-05-07T10:43:28.776Z,34.94
2019-05-07T10:44:28.758Z,36.68
2019-05-07T10:45:28.778Z,36.46
2019-05-07T10:46:28.774Z,34.63
2019-05-07T10:47:28.731Z,35.66
2019-05-07T10:48:28.718Z,38.29
2019-05-07T10:49:28.707Z,37.74
2019-05-07T10:50:36.258Z,33.04
2019-05-07T10:51:29.688Z,34.25
2019-05-07T10:52:28.670Z,34.34
2019-05-07T10:53:28.685Z,35.55
2019-05-07T10:54:28.715Z,36.04
2019-05-07T10:55:28.655Z,33.61
2019-05-07T10:56:28.645Z,32.02
2019-05-07T10:57:28.635Z,32.56
2019-05-07T10:58:28.609Z,35.80
2019-05-07T10:59:28.598Z,36.54
2019-05-07T11:00:28.590Z,35.34
2019-05-07T11:01:28.571Z,37.70
2019-05-07T11:02:28.584Z,36.73
2019-05-07T11:03:28.650Z,36.53
2019-05-07T11:04:39.317Z,36.95
2019-05-07T11:05:29.828Z,36.77
2019-05-07T11:06:28.524Z,36.66
2019-05-07T11:07:28.529Z,37.17
2019-05-07T11:08:28.514Z,37.40
2019-05-07T11:09:28.493Z,38.21
2019-05-07T11:10:28.485Z,36.99
2019-05-07T11:11:28.475Z,36.99
2019-05-07T11:12:28.525Z,38.51
2019-05-07T11:13:28.446Z,40.35
2019-05-07T11:14:28.438Z,38.49
2019-05-07T11:15:28.431Z,36.56
2019-05-07T11:16:28.411Z,37.27
2019-05-07T11:17:28.407Z,37.75
2019-05-07T11:18:28.438Z,36.88
2019-05-07T11:19:28.383Z,36.32
2019-05-07T11:20:28.366Z,36.29
2019-05-07T11:21:28.354Z,33.74
2019-05-07T11:22:28.349Z,32.74
2019-05-07T11:23:28.338Z,33.94
2019-05-07T11:24:28.337Z,34.74
2019-05-07T11:25:28.328Z,35.39
2019-05-07T11:26:28.353Z,32.04
2019-05-07T11:27:28.331Z,33.54
2019-05-07T11:28:28.282Z,32.82
2019-05-07T11:29:28.285Z,32.40
2019-05-07T11:30:28.258Z,32.90
2019-05-07T11:31:28.264Z,33.09
2019-05-07T11:32:28.240Z,31.76
2019-05-07T11:33:28.245Z,30.84
2019-05-07T11:34:28.213Z,30.12
2019-05-07T11:35:28.210Z,29.21
2019-05-07T11:36:28.192Z,28.20
2019-05-07T11:37:28.193Z,28.69
2019-05-07T11:38:28.176Z,29.30
2019-05-07T11:39:28.163Z,29.69
2019-05-07T11:40:28.185Z,29.00
2019-05-07T11:41:28.148Z,28.94
2019-05-07T11:42:28.136Z,29.28
2019-05-07T11:43:28.123Z,29.32
2019-05-07T11:44:28.111Z,31.58
2019-05-07T11:45:28.114Z,33.15
2019-05-07T11:46:28.111Z,36.16
2019-05-07T11:47:28.082Z,36.82
2019-05-07T11:48:28.077Z,39.38
2019-05-07T11:49:28.056Z,39.50
2019-05-07T11:50:28.060Z,39.51
2019-05-07T11:51:28.047Z,39.82
2019-05-07T11:52:28.020Z,39.92
2019-05-07T11:53:28.015Z,37.70
2019-05-07T11:54:28.018Z,39.01
2019-05-07T11:55:28.046Z,39.50
2019-05-07T11:56:28.003Z,37.34
2019-05-07T11:57:27.971Z,36.17
2019-05-07T11:58:27.960Z,33.58
2019-05-07T11:59:27.947Z,34.78
2019-05-07T12:00:27.943Z,33.69
2019-05-07T12:01:43.065Z,36.65
2019-05-07T12:02:28.946Z,34.14
2019-05-07T12:03:27.908Z,35.78
2019-05-07T12:04:28.172Z,34.66
2019-05-07T12:05:27.888Z,37.00
2019-05-07T12:06:27.884Z,34.68
2019-05-07T12:07:27.900Z,34.88
2019-05-07T12:08:40.985Z,34.49
2019-05-07T12:09:28.837Z,33.98
2019-05-07T12:10:27.834Z,34.41
2019-05-07T12:11:27.817Z,34.16
2019-05-07T12:12:27.802Z,33.69
2019-05-07T12:13:27.809Z,33.13
2019-05-07T12:14:31.559Z,33.49
2019-05-07T12:15:27.783Z,29.40
2019-05-07T12:16:27.808Z,29.39
2019-05-07T12:17:27.789Z,31.39
2019-05-07T12:18:27.773Z,28.77
2019-05-07T12:19:27.772Z,29.01
2019-05-07T12:20:27.755Z,29.44
2019-05-07T12:21:27.716Z,30.87
2019-05-07T12:22:27.697Z,29.47
2019-05-07T12:23:27.683Z,29.50
2019-05-07T12:24:27.717Z,27.77
2019-05-07T12:25:27.659Z,26.53
2019-05-07T12:26:27.652Z,27.52
2019-05-07T12:27:27.651Z,25.89
2019-05-07T12:28:27.627Z,25.37
2019-05-07T12:29:27.623Z,27.28
2019-05-07T12:30:27.618Z,28.08
2019-05-07T12:31:27.601Z,27.75
2019-05-07T12:32:27.583Z,27.01
2019-05-07T12:33:27.597Z,26.50
2019-05-07T12:34:27.579Z,28.50
2019-05-07T12:35:27.659Z,27.39
2019-05-07T12:36:27.545Z,28.89
2019-05-07T12:37:27.535Z,26.57
2019-05-07T12:38:27.606Z,24.76
2019-05-07T12:39:27.526Z,25.67
2019-05-07T12:40:27.502Z,27.56
2019-05-07T12:41:27.487Z,24.94
2019-05-07T12:42:27.510Z,25.44
2019-05-07T12:43:27.483Z,25.59
2019-05-07T12:44:27.467Z,26.62
2019-05-07T12:45:27.444Z,25.95
2019-05-07T12:46:27.452Z,27.20
2019-05-07T12:47:27.433Z,26.03
2019-05-07T12:48:27.422Z,26.86
2019-05-07T12:49:27.425Z,28.90
2019-05-07T12:50:27.401Z,29.13
2019-05-07T12:51:34.587Z,30.64
2019-05-07T12:52:28.370Z,27.36